createdAt,value
2017-10-07T00:01:27.583Z,93.84
2017-10-07T00:03:56.692Z,93.67
2017-10-07T00:06:25.051Z,93.92
2017-10-07T00:08:53.379Z,93.43
2017-10-07T00:11:22.485Z,93.05
2017-10-07T00:13:51.616Z,93.05
2017-10-07T00:16:19.972Z,92.76
2017-10-07T00:18:49.071Z,92.36
2017-10-07T00:21:18.170Z,91.51
2017-10-07T00:23:46.532Z,91.64
2017-10-07T00:26:15.632Z,92.25
2017-10-07T00:28:44.768Z,92.37
2017-10-07T00:31:13.104Z,91.69
2017-10-07T00:33:42.239Z,91.33
2017-10-07T00:36:10.568Z,91.05
2017-10-07T00:38:38.914Z,90.90
2017-10-07T00:41:07.292Z,90.48
2017-10-07T00:43:35.624Z,90.08
2017-10-07T00:46:04.759Z,89.72
2017-10-07T00:48:33.103Z,89.53
2017-10-07T00:51:03.376Z,89.25
2017-10-07T00:53:31.705Z,88.96
2017-10-07T00:56:00.854Z,90.36
2017-10-07T00:58:29.186Z,90.89
2017-10-07T01:00:58.402Z,90.84
2017-10-07T01:03:27.529Z,90.47
2017-10-07T01:05:55.875Z,90.68
2017-10-07T01:08:25.000Z,90.06
2017-10-07T01:10:53.347Z,89.51
2017-10-07T01:13:22.452Z,89.61
2017-10-07T01:15:51.571Z,89.37
2017-10-07T01:18:19.911Z,88.87
2017-10-07T01:20:48.292Z,89.91
2017-10-07T01:23:16.635Z,89.78
2017-10-07T01:25:44.973Z,89.81
2017-10-07T01:28:14.106Z,90.13
2017-10-07T01:30:42.447Z,90.09
2017-10-07T01:33:11.580Z,90.24
2017-10-07T01:35:39.907Z,90.09
2017-10-07T01:38:08.259Z,90.41
2017-10-07T01:40:36.622Z,91.72
2017-10-07T01:43:05.556Z,93.72
2017-10-07T01:45:33.916Z,94.04
2017-10-07T01:48:02.247Z,93.87
2017-10-07T01:50:31.347Z,94.56
2017-10-07T01:53:00.479Z,94.84
2017-10-07T01:55:28.819Z,95.93
2017-10-07T01:57:57.939Z,95.71
2017-10-07T02:00:26.267Z,95.59
2017-10-07T02:02:54.626Z,95.77
2017-10-07T02:05:22.972Z,95.61
2017-10-07T02:07:51.308Z,96.13
2017-10-07T02:10:19.661Z,96.78
2017-10-07T02:12:48.004Z,96.63
2017-10-07T02:15:17.169Z,96.78
2017-10-07T02:17:45.507Z,96.65
2017-10-07T02:20:13.869Z,96.34
2017-10-07T02:22:42.213Z,95.89
2017-10-07T02:25:10.571Z,95.33
2017-10-07T02:27:38.907Z,96.11
2017-10-07T02:30:08.044Z,95.10
2017-10-07T02:32:36.375Z,94.20
2017-10-07T02:35:05.505Z,94.35
2017-10-07T02:37:33.840Z,95.32
2017-10-07T02:40:02.183Z,94.68
2017-10-07T02:42:30.552Z,94.73
2017-10-07T02:44:58.902Z,94.39
2017-10-07T02:47:28.035Z,94.30
2017-10-07T02:49:56.382Z,94.66
2017-10-07T02:52:24.744Z,94.14
2017-10-07T02:54:53.843Z,94.37
2017-10-07T02:57:22.944Z,93.90
2017-10-07T02:59:52.067Z,93.73
2017-10-07T03:02:20.416Z,93.62
2017-10-07T03:04:48.771Z,93.41
2017-10-07T03:07:17.119Z,92.75
2017-10-07T03:09:45.485Z,92.96
2017-10-07T03:12:13.819Z,92.44
2017-10-07T03:14:42.176Z,92.97
2017-10-07T03:17:11.484Z,92.43
2017-10-07T03:19:40.609Z,93.02
2017-10-07T03:22:08.964Z,91.80
2017-10-07T03:24:37.295Z,91.67
2017-10-07T03:27:06.426Z,92.22
2017-10-07T03:29:34.763Z,92.51
2017-10-07T03:32:03.888Z,93.19
2017-10-07T03:34:32.227Z,93.23
2017-10-07T03:37:00.568Z,93.89
2017-10-07T03:39:28.928Z,93.93
2017-10-07T03:41:57.270Z,93.75
2017-10-07T03:44:25.636Z,93.50
2017-10-07T03:46:53.971Z,93.50
2017-10-07T03:49:22.303Z,93.88
2017-10-07T03:51:50.667Z,93.85
2017-10-07T03:54:18.996Z,93.66
2017-10-07T03:56:48.128Z,93.12
2017-10-07T03:59:16.464Z,92.59
2017-10-07T04:01:45.573Z,93.04
2017-10-07T04:04:14.704Z,92.47
2017-10-07T04:06:43.030Z,92.46
2017-10-07T04:09:12.160Z,93.38
2017-10-07T04:11:40.499Z,93.06
2017-10-07T04:14:08.874Z,93.24
2017-10-07T04:16:37.215Z,92.42
2017-10-07T04:19:05.553Z,92.36
2017-10-07T04:21:34.679Z,92.27
2017-10-07T04:24:03.007Z,91.77
2017-10-07T04:26:31.362Z,90.58
2017-10-07T04:28:59.703Z,90.68
2017-10-07T04:31:28.803Z,90.65
2017-10-07T04:33:57.928Z,91.34
2017-10-07T04:36:26.262Z,90.76
2017-10-07T04:38:54.628Z,91.12
2017-10-07T04:41:22.954Z,90.78
2017-10-07T04:43:51.315Z,90.23
2017-10-07T04:46:20.419Z,90.96
2017-10-07T04:48:49.563Z,90.37
2017-10-07T04:51:17.900Z,90.05
2017-10-07T04:53:47.036Z,90.56
2017-10-07T04:56:15.385Z,90.72
2017-10-07T04:58:43.724Z,90.22
2017-10-07T05:01:12.103Z,90.75
2017-10-07T05:03:40.475Z,90.53
2017-10-07T05:06:08.828Z,90.89
2017-10-07T05:08:37.928Z,90.63
2017-10-07T05:11:06.291Z,90.28
2017-10-07T05:13:34.627Z,90.38
2017-10-07T05:16:02.987Z,89.37
2017-10-07T05:18:31.324Z,89.05
2017-10-07T05:20:59.680Z,89.02
2017-10-07T05:23:28.782Z,88.74
2017-10-07T05:25:57.914Z,89.47
2017-10-07T05:28:26.256Z,89.06
2017-10-07T05:30:55.364Z,89.06
2017-10-07T05:33:24.491Z,88.27
2017-10-07T05:35:52.821Z,88.19
2017-10-07T05:38:21.179Z,87.84
2017-10-07T05:40:49.515Z,88.57
2017-10-07T05:43:17.880Z,88.27
2017-10-07T05:45:46.981Z,87.87
2017-10-07T05:48:16.089Z,89.32
2017-10-07T05:50:45.223Z,88.82
2017-10-07T05:53:13.552Z,89.21
2017-10-07T05:55:42.693Z,89.23
2017-10-07T05:58:11.029Z,88.65
2017-10-07T06:00:40.142Z,89.05
2017-10-07T06:03:09.274Z,89.49
2017-10-07T06:05:37.618Z,87.87
2017-10-07T06:08:06.745Z,87.78
2017-10-07T06:10:35.078Z,88.99
2017-10-07T06:13:04.204Z,89.68
2017-10-07T06:15:32.569Z,89.95
2017-10-07T06:18:01.681Z,90.11
2017-10-07T06:20:30.075Z,88.27
2017-10-07T06:22:58.403Z,87.27
2017-10-07T06:25:26.748Z,87.66
2017-10-07T06:27:55.100Z,87.60
2017-10-07T06:30:24.199Z,86.75
2017-10-07T06:32:52.563Z,86.78
2017-10-07T06:35:21.668Z,87.15
2017-10-07T06:37:50.768Z,86.59
2017-10-07T06:40:19.883Z,85.98
2017-10-07T06:42:48.214Z,85.83
2017-10-07T06:45:16.588Z,86.14
2017-10-07T06:47:44.919Z,85.98
2017-10-07T06:50:13.316Z,85.80
2017-10-07T06:52:41.647Z,85.80
2017-10-07T06:55:09.993Z,85.71
2017-10-07T06:57:38.361Z,85.69
2017-10-07T07:00:06.703Z,85.45
2017-10-07T07:02:35.847Z,85.80
2017-10-07T07:05:04.198Z,85.46
2017-10-07T07:07:32.560Z,85.25
2017-10-07T07:10:01.657Z,84.72
2017-10-07T07:12:30.792Z,85.20
2017-10-07T07:14:59.120Z,84.83
2017-10-07T07:17:27.459Z,85.62
2017-10-07T07:19:55.816Z,86.07
2017-10-07T07:22:24.149Z,85.97
2017-10-07T07:24:52.507Z,84.93
2017-10-07T07:27:20.849Z,85.08
2017-10-07T07:29:49.976Z,82.08
2017-10-07T07:32:18.307Z,82.72
2017-10-07T07:34:47.417Z,82.77
2017-10-07T07:37:16.553Z,82.27
2017-10-07T07:39:44.910Z,82.62
2017-10-07T07:42:13.277Z,83.74
2017-10-07T07:44:42.387Z,83.12
2017-10-07T07:47:10.767Z,83.52
2017-10-07T07:49:39.112Z,83.08
2017-10-07T07:52:07.456Z,83.05
2017-10-07T07:54:35.831Z,82.98
2017-10-07T07:57:04.167Z,82.14
2017-10-07T07:59:33.296Z,81.40
2017-10-07T08:02:01.638Z,81.40
2017-10-07T08:04:29.991Z,80.30
2017-10-07T08:06:58.324Z,81.14
2017-10-07T08:09:27.466Z,81.25
2017-10-07T08:11:56.352Z,82.15
2017-10-07T08:14:24.723Z,82.33
2017-10-07T08:16:53.052Z,81.17
2017-10-07T08:19:21.392Z,80.22
2017-10-07T08:21:49.784Z,80.47
2017-10-07T08:24:18.128Z,80.81
2017-10-07T08:26:46.484Z,81.24
2017-10-07T08:29:15.592Z,79.65
2017-10-07T08:31:44.700Z,79.02
2017-10-07T08:34:13.072Z,78.90
2017-10-07T08:36:42.175Z,78.11
2017-10-07T08:39:10.543Z,78.40
2017-10-07T08:41:39.652Z,78.46
2017-10-07T08:44:07.988Z,78.28
2017-10-07T08:46:36.347Z,78.87
2017-10-07T08:49:05.441Z,79.15
2017-10-07T08:51:33.809Z,79.39
2017-10-07T08:54:02.149Z,78.89
2017-10-07T08:56:31.248Z,79.00
2017-10-07T08:59:00.385Z,77.67
2017-10-07T09:01:28.723Z,79.01
2017-10-07T09:03:57.083Z,80.27
2017-10-07T09:06:25.416Z,79.49
2017-10-07T09:08:53.752Z,78.87
2017-10-07T09:11:22.128Z,78.84
2017-10-07T09:13:50.469Z,78.45
2017-10-07T09:16:18.833Z,79.72
2017-10-07T09:18:47.166Z,79.66
2017-10-07T09:21:15.508Z,79.54
2017-10-07T09:23:43.880Z,79.45
2017-10-07T09:26:12.241Z,79.81
2017-10-07T09:28:41.344Z,80.23
2017-10-07T09:31:10.466Z,80.99
2017-10-07T09:33:38.824Z,79.37
2017-10-07T09:36:07.164Z,80.31
2017-10-07T09:38:35.536Z,79.67
2017-10-07T09:41:03.871Z,80.57
2017-10-07T09:43:33.360Z,81.04
2017-10-07T09:46:02.490Z,82.01
2017-10-07T09:48:30.829Z,81.87
2017-10-07T09:50:59.963Z,81.93
2017-10-07T09:53:28.305Z,81.47
2017-10-07T09:55:56.666Z,81.17
2017-10-07T09:58:25.023Z,81.14
2017-10-07T10:00:53.383Z,80.46
2017-10-07T10:03:21.711Z,81.33
2017-10-07T10:05:50.055Z,81.02
2017-10-07T10:08:18.426Z,81.10
2017-10-07T10:10:46.813Z,80.69
2017-10-07T10:13:15.175Z,80.37
2017-10-07T10:15:43.514Z,81.41
2017-10-07T10:18:11.875Z,81.17
2017-10-07T10:20:40.215Z,80.71
2017-10-07T10:23:08.562Z,81.56
2017-10-07T10:25:36.928Z,82.54
2017-10-07T10:28:05.272Z,81.58
2017-10-07T10:30:33.641Z,81.99
2017-10-07T10:33:01.981Z,82.65
2017-10-07T10:35:30.336Z,82.72
2017-10-07T10:37:58.673Z,82.97
2017-10-07T10:40:27.080Z,82.59
2017-10-07T10:42:55.413Z,83.27
2017-10-07T10:45:24.580Z,82.35
2017-10-07T10:47:52.940Z,82.64
2017-10-07T10:50:21.317Z,83.87
2017-10-07T10:52:49.683Z,83.64
2017-10-07T10:55:18.016Z,83.65
2017-10-07T10:57:46.376Z,82.97
2017-10-07T11:00:15.495Z,81.74
2017-10-07T11:02:43.836Z,83.10
2017-10-07T11:05:12.192Z,82.55
2017-10-07T11:07:40.538Z,83.31
2017-10-07T11:10:08.903Z,82.94
2017-10-07T11:12:37.235Z,81.91
2017-10-07T11:15:05.580Z,82.26
2017-10-07T11:17:33.959Z,82.03
2017-10-07T11:20:02.312Z,82.51
2017-10-07T11:22:30.688Z,82.45
2017-10-07T11:24:59.033Z,82.38
2017-10-07T11:27:28.160Z,82.46
2017-10-07T11:29:56.492Z,82.50
2017-10-07T11:32:24.820Z,82.41
2017-10-07T11:34:53.181Z,82.97
2017-10-07T11:37:21.521Z,81.93
2017-10-07T11:39:49.879Z,82.07
2017-10-07T11:42:18.211Z,82.62
2017-10-07T11:44:47.345Z,82.40
2017-10-07T11:47:15.692Z,82.41
2017-10-07T11:49:44.819Z,83.30
2017-10-07T11:52:13.150Z,82.57
2017-10-07T11:54:41.537Z,82.06
2017-10-07T11:57:10.647Z,81.88
2017-10-07T11:59:40.987Z,82.08
2017-10-07T12:02:09.359Z,81.77
2017-10-07T12:04:37.709Z,82.27
2017-10-07T12:07:06.073Z,82.73
2017-10-07T12:09:34.420Z,82.00
2017-10-07T12:12:02.780Z,82.20
2017-10-07T12:14:31.128Z,82.77
2017-10-07T12:16:59.495Z,82.75
2017-10-07T12:19:27.828Z,83.26
2017-10-07T12:21:56.166Z,82.63
2017-10-07T12:24:24.531Z,81.41
2017-10-07T12:26:52.859Z,82.39
2017-10-07T12:29:21.994Z,82.67
2017-10-07T12:31:50.327Z,80.98
2017-10-07T12:34:19.452Z,81.26
2017-10-07T12:36:47.792Z,81.38
2017-10-07T12:39:16.152Z,81.30
2017-10-07T12:41:44.508Z,81.14
2017-10-07T12:44:12.863Z,80.93
2017-10-07T12:46:41.208Z,80.49
2017-10-07T12:49:09.547Z,80.08
2017-10-07T12:51:37.899Z,78.68
2017-10-07T12:54:06.237Z,79.59
2017-10-07T12:56:34.600Z,78.92
2017-10-07T12:59:02.940Z,78.95
2017-10-07T13:01:31.300Z,79.49
2017-10-07T13:04:00.427Z,79.22
2017-10-07T13:06:28.765Z,80.14
2017-10-07T13:08:57.129Z,79.86
2017-10-07T13:11:25.468Z,79.37
2017-10-07T13:13:53.806Z,79.82
2017-10-07T13:16:22.181Z,80.79
2017-10-07T13:18:50.525Z,79.59
2017-10-07T13:21:18.886Z,80.07
2017-10-07T13:23:47.220Z,81.14
2017-10-07T13:26:15.562Z,81.07
2017-10-07T13:28:43.923Z,81.65
2017-10-07T13:31:12.289Z,80.83
2017-10-07T13:33:42.735Z,81.22
2017-10-07T13:36:11.142Z,81.35
2017-10-07T13:38:39.481Z,81.68
2017-10-07T13:41:08.584Z,81.94
2017-10-07T13:43:37.711Z,81.91
2017-10-07T13:46:06.041Z,82.14
2017-10-07T13:48:34.408Z,81.78
2017-10-07T13:51:02.736Z,81.65
2017-10-07T13:53:31.102Z,82.41
2017-10-07T13:56:00.204Z,82.27
2017-10-07T13:58:29.300Z,82.13
2017-10-07T14:00:58.427Z,82.00
2017-10-07T14:03:26.760Z,82.02
2017-10-07T14:05:55.894Z,81.56
2017-10-07T14:08:24.227Z,82.26
2017-10-07T14:10:52.600Z,82.78
2017-10-07T14:13:20.952Z,82.64
2017-10-07T14:15:49.287Z,82.34
2017-10-07T14:18:18.420Z,82.68
2017-10-07T14:20:46.768Z,82.21
2017-10-07T14:23:15.904Z,83.49
2017-10-07T14:25:45.398Z,84.23
2017-10-07T14:28:13.766Z,83.17
2017-10-07T14:30:42.107Z,83.41
2017-10-07T14:33:10.679Z,83.17
2017-10-07T14:35:39.141Z,83.19
2017-10-07T14:38:07.491Z,83.35
2017-10-07T14:40:36.628Z,83.71
2017-10-07T14:43:04.968Z,83.11
2017-10-07T14:45:34.099Z,83.83
2017-10-07T14:48:02.436Z,83.43
2017-10-07T14:50:30.824Z,84.31
2017-10-07T14:52:59.936Z,84.17
2017-10-07T14:55:28.304Z,83.41
2017-10-07T14:57:57.409Z,83.59
2017-10-07T15:00:25.749Z,84.44
2017-10-07T15:02:54.121Z,83.96
2017-10-07T15:05:22.475Z,84.91
2017-10-07T15:07:50.881Z,85.35
2017-10-07T15:10:19.211Z,86.25
2017-10-07T15:12:47.588Z,86.42
2017-10-07T15:15:15.936Z,86.57
2017-10-07T15:17:44.280Z,86.29
2017-10-07T15:20:12.647Z,86.27
2017-10-07T15:22:40.979Z,85.89
2017-10-07T15:25:09.351Z,85.19
2017-10-07T15:27:37.691Z,85.48
2017-10-07T15:30:06.060Z,86.22
2017-10-07T15:32:34.400Z,87.14
2017-10-07T15:35:02.738Z,86.69
2017-10-07T15:37:31.128Z,87.05
2017-10-07T15:39:59.463Z,87.41
2017-10-07T15:42:28.593Z,87.95
2017-10-07T15:44:56.932Z,88.67
2017-10-07T15:47:26.036Z,88.31
2017-10-07T15:49:55.186Z,88.05
2017-10-07T15:52:23.538Z,89.03
2017-10-07T15:54:51.902Z,89.60
2017-10-07T15:57:21.005Z,90.71
2017-10-07T15:59:49.384Z,91.57
2017-10-07T16:02:18.489Z,91.78
2017-10-07T16:04:46.851Z,92.84
2017-10-07T16:07:15.952Z,92.93
2017-10-07T16:09:45.048Z,92.23
2017-10-07T16:12:14.180Z,92.67
2017-10-07T16:14:42.523Z,93.31
2017-10-07T16:17:11.642Z,94.01
2017-10-07T16:19:39.989Z,94.06
2017-10-07T16:22:08.360Z,94.21
2017-10-07T16:24:36.689Z,94.97
2017-10-07T16:27:05.061Z,94.51
2017-10-07T16:29:33.395Z,94.57
2017-10-07T16:32:01.732Z,93.92
2017-10-07T16:34:30.087Z,94.15
2017-10-07T16:36:59.204Z,95.01
2017-10-07T16:39:27.580Z,95.03
2017-10-07T16:41:55.956Z,94.13
2017-10-07T16:44:25.086Z,95.04
2017-10-07T16:46:53.416Z,95.01
2017-10-07T16:49:22.524Z,95.78
2017-10-07T16:51:51.652Z,95.63
2017-10-07T16:54:19.994Z,95.09
2017-10-07T16:56:49.122Z,94.55
2017-10-07T16:59:17.464Z,95.03
2017-10-07T17:01:45.801Z,95.18
2017-10-07T17:04:14.165Z,94.92
2017-10-07T17:06:42.509Z,94.88
2017-10-07T17:09:11.646Z,94.51
2017-10-07T17:11:39.984Z,95.00
2017-10-07T17:14:09.073Z,94.73
2017-10-07T17:16:37.766Z,95.17
2017-10-07T17:19:06.101Z,94.40
2017-10-07T17:21:34.456Z,94.78
2017-10-07T17:24:02.824Z,94.57
2017-10-07T17:26:31.963Z,94.64
2017-10-07T17:29:00.289Z,95.31
2017-10-07T17:31:28.648Z,95.90
2017-10-07T17:33:56.981Z,95.75
2017-10-07T17:36:25.331Z,95.21
2017-10-07T17:38:53.667Z,95.59
2017-10-07T17:41:22.003Z,95.24
2017-10-07T17:43:51.455Z,94.03
2017-10-07T17:46:19.802Z,94.27
2017-10-07T17:48:48.180Z,93.98
2017-10-07T17:51:17.280Z,94.51
2017-10-07T17:53:45.620Z,94.71
2017-10-07T17:56:14.012Z,94.32
2017-10-07T17:58:42.354Z,94.24
2017-10-07T18:01:10.727Z,94.32
2017-10-07T18:03:39.100Z,94.66
2017-10-07T18:06:07.475Z,94.88
2017-10-07T18:08:35.877Z,94.91
2017-10-07T18:11:04.219Z,95.04
2017-10-07T18:13:33.320Z,95.59
2017-10-07T18:16:02.451Z,95.87
2017-10-07T18:18:30.788Z,95.77
2017-10-07T18:20:59.918Z,95.83
2017-10-07T18:23:29.297Z,95.47
2017-10-07T18:25:58.442Z,95.39
2017-10-07T18:28:26.779Z,95.64
2017-10-07T18:30:55.902Z,95.22
2017-10-07T18:33:24.260Z,95.74
2017-10-07T18:35:53.366Z,95.85
2017-10-07T18:38:21.727Z,95.72
2017-10-07T18:40:50.824Z,95.40
2017-10-07T18:43:19.976Z,95.88
2017-10-07T18:45:48.317Z,96.76
2017-10-07T18:48:16.688Z,96.62
2017-10-07T18:50:45.792Z,97.30
2017-10-07T18:53:14.891Z,98.04
2017-10-07T18:55:44.019Z,98.51
2017-10-07T18:58:12.356Z,98.14
2017-10-07T19:00:41.479Z,98.07
2017-10-07T19:03:09.804Z,97.93
2017-10-07T19:05:38.171Z,98.22
2017-10-07T19:08:06.505Z,98.44
2017-10-07T19:10:35.635Z,98.38
2017-10-07T19:13:03.978Z,98.48
2017-10-07T19:15:33.092Z,98.46
2017-10-07T19:18:01.424Z,98.24
2017-10-07T19:20:29.766Z,97.71
2017-10-07T19:22:58.133Z,97.84
2017-10-07T19:25:26.469Z,97.24
2017-10-07T19:27:54.827Z,97.12
2017-10-07T19:30:23.165Z,96.77
2017-10-07T19:32:51.525Z,97.54
2017-10-07T19:35:20.660Z,97.59
2017-10-07T19:37:49.051Z,97.41
2017-10-07T19:40:17.406Z,97.27
2017-10-07T19:42:45.807Z,97.49
2017-10-07T19:45:14.171Z,97.45
2017-10-07T19:47:42.562Z,96.76
2017-10-07T19:50:10.919Z,97.08
2017-10-07T19:52:40.041Z,97.61
2017-10-07T19:55:08.442Z,96.97
2017-10-07T19:57:36.815Z,97.00
2017-10-07T20:00:05.223Z,97.68
2017-10-07T20:02:33.591Z,97.53
2017-10-07T20:05:01.979Z,97.02
2017-10-07T20:07:30.356Z,96.99
2017-10-07T20:09:58.730Z,96.82
2017-10-07T20:12:27.128Z,97.29
2017-10-07T20:14:55.556Z,97.47
2017-10-07T20:17:24.083Z,97.08
2017-10-07T20:19:52.457Z,97.28
2017-10-07T20:22:21.584Z,96.65
2017-10-07T20:24:50.763Z,97.09
2017-10-07T20:27:19.174Z,97.55
2017-10-07T20:29:47.564Z,97.49
2017-10-07T20:32:16.795Z,97.63
2017-10-07T20:34:45.147Z,97.52
2017-10-07T20:37:14.417Z,97.52
2017-10-07T20:39:42.808Z,98.20
2017-10-07T20:42:11.297Z,98.68
2017-10-07T20:44:39.706Z,98.24
2017-10-07T20:47:08.157Z,98.77
2017-10-07T20:49:37.317Z,97.98
2017-10-07T20:52:05.715Z,98.02
2017-10-07T20:54:34.103Z,98.71
2017-10-07T20:57:02.484Z,98.09
2017-10-07T20:59:30.886Z,98.46
2017-10-07T21:01:59.282Z,98.70
2017-10-07T21:04:28.418Z,99.49
2017-10-07T21:06:56.831Z,98.80
2017-10-07T21:09:25.214Z,98.75
2017-10-07T21:11:53.596Z,98.32
2017-10-07T21:14:21.970Z,98.90
2017-10-07T21:16:50.307Z,97.98
2017-10-07T21:19:18.696Z,97.99
2017-10-07T21:21:47.072Z,98.33
2017-10-07T21:24:15.495Z,97.90
2017-10-07T21:26:43.915Z,97.21
2017-10-07T21:29:13.063Z,96.22
2017-10-07T21:31:41.440Z,96.58
2017-10-07T21:34:09.848Z,97.66
2017-10-07T21:36:38.315Z,97.14
2017-10-07T21:39:06.663Z,97.52
2017-10-07T21:41:35.000Z,97.58
2017-10-07T21:44:04.432Z,97.86
2017-10-07T21:46:33.544Z,98.03
2017-10-07T21:49:01.944Z,98.36
2017-10-07T21:51:30.296Z,99.01
2017-10-07T21:53:58.683Z,98.36
2017-10-07T21:56:27.131Z,98.28
2017-10-07T21:58:56.279Z,98.26
2017-10-07T22:01:24.659Z,98.81
2017-10-07T22:03:53.068Z,98.94
2017-10-07T22:06:21.451Z,99.13
2017-10-07T22:08:49.841Z,99.58
2017-10-07T22:11:18.249Z,98.83
2017-10-07T22:13:47.396Z,98.35
2017-10-07T22:16:15.764Z,98.49
2017-10-07T22:18:44.177Z,98.11
2017-10-07T22:21:12.543Z,98.11
2017-10-07T22:23:40.919Z,98.36
2017-10-07T22:26:09.323Z,97.46
2017-10-07T22:28:37.686Z,97.55
2017-10-07T22:31:06.060Z,98.05
2017-10-07T22:33:34.432Z,97.52
2017-10-07T22:36:02.796Z,97.79
2017-10-07T22:38:31.233Z,97.62
2017-10-07T22:40:59.589Z,97.64
2017-10-07T22:43:28.008Z,98.53
2017-10-07T22:45:57.157Z,98.34
2017-10-07T22:48:25.563Z,98.15
2017-10-07T22:50:53.952Z,98.15
2017-10-07T22:53:23.198Z,97.31
2017-10-07T22:55:51.638Z,97.37
2017-10-07T22:58:20.101Z,97.57
2017-10-07T23:00:48.458Z,97.21
2017-10-07T23:03:16.910Z,97.22
2017-10-07T23:05:45.309Z,97.22
2017-10-07T23:08:13.775Z,97.63
2017-10-07T23:10:42.939Z,97.05
2017-10-07T23:13:11.378Z,97.00
2017-10-07T23:15:39.744Z,97.70
2017-10-07T23:18:08.863Z,97.77
2017-10-07T23:20:37.273Z,97.33
2017-10-07T23:23:05.663Z,97.26
2017-10-07T23:25:34.075Z,98.17
2017-10-07T23:28:02.466Z,98.12
2017-10-07T23:30:31.626Z,98.61
2017-10-07T23:33:00.024Z,98.17
2017-10-07T23:35:28.418Z,97.87
2017-10-07T23:37:57.584Z,97.61
2017-10-07T23:40:26.004Z,97.28
2017-10-07T23:42:55.205Z,97.47
2017-10-07T23:45:24.354Z,96.94
2017-10-07T23:47:52.755Z,96.91
2017-10-07T23:50:21.136Z,96.60
2017-10-07T23:52:49.487Z,96.60
2017-10-07T23:55:17.885Z,96.27
2017-10-07T23:57:46.253Z,96.00
